createdAt,value
2022-10-15T00:01:32.206Z,100571.28
2022-10-15T00:05:37.537Z,100563.00
2022-10-15T00:09:39.492Z,100568.47
2022-10-15T00:13:42.235Z,100574.50
2022-10-15T00:17:44.355Z,100569.56
2022-10-15T00:21:46.138Z,100559.44
2022-10-15T00:25:48.074Z,100565.84
2022-10-15T00:29:49.787Z,100567.25
2022-10-15T00:33:53.797Z,100566.97
2022-10-15T00:37:57.325Z,100575.44
2022-10-15T00:41:59.461Z,100569.38
2022-10-15T00:46:01.323Z,100566.69
2022-10-15T00:50:27.381Z,100569.38
2022-10-15T00:54:34.800Z,100565.13
2022-10-15T00:58:37.290Z,100562.03
2022-10-15T01:02:39.234Z,100564.03
2022-10-15T01:06:41.269Z,100565.50
2022-10-15T01:11:17.308Z,100561.69
2022-10-15T01:15:49.510Z,100543.66
2022-10-15T01:20:14.918Z,100553.97
2022-10-15T01:24:44.290Z,100557.25
2022-10-15T01:29:06.267Z,100560.41
2022-10-15T01:33:22.016Z,100560.94
2022-10-15T01:37:48.979Z,100560.66
2022-10-15T01:42:07.575Z,100555.88
2022-10-15T01:46:15.995Z,100559.91
2022-10-15T01:50:31.697Z,100557.34
2022-10-15T01:54:34.510Z,100554.81
2022-10-15T01:58:40.988Z,100537.16
2022-10-15T02:02:43.369Z,100543.88
2022-10-15T02:06:50.073Z,100536.63
2022-10-15T02:11:06.585Z,100540.72
2022-10-15T02:15:11.653Z,100533.25
2022-10-15T02:19:39.924Z,100534.53
2022-10-15T02:23:53.080Z,100536.56
2022-10-15T02:28:00.373Z,100529.22
2022-10-15T02:32:06.939Z,100535.09
2022-10-15T02:36:09.191Z,100528.75
2022-10-15T02:40:12.121Z,100524.84
2022-10-15T02:44:14.141Z,100515.91
2022-10-15T02:48:16.212Z,100513.91
2022-10-15T02:52:17.992Z,100504.03
2022-10-15T02:56:21.093Z,100500.81
2022-10-15T03:00:23.362Z,100500.66
2022-10-15T03:04:25.297Z,100508.19
2022-10-15T03:08:27.191Z,100509.97
2022-10-15T03:12:29.815Z,100514.22
2022-10-15T03:16:32.869Z,100510.66
2022-10-15T03:20:35.153Z,100512.84
2022-10-15T03:24:37.108Z,100511.53
2022-10-15T03:28:40.162Z,100516.06
2022-10-15T03:36:48.862Z,100509.59
2022-10-15T03:40:51.106Z,100508.81
2022-10-15T03:45:03.478Z,100518.16
2022-10-15T03:49:05.333Z,100517.06
2022-10-15T03:53:07.341Z,100511.06
2022-10-15T03:57:09.690Z,100505.97
2022-10-15T04:01:19.325Z,100501.38
2022-10-15T04:05:21.530Z,100498.91
2022-10-15T04:09:28.689Z,100487.72
2022-10-15T04:13:50.609Z,100490.72
2022-10-15T04:17:55.941Z,100478.63
2022-10-15T04:21:59.910Z,100486.56
2022-10-15T04:26:07.051Z,100482.47
2022-10-15T04:30:09.657Z,100479.03
2022-10-15T04:34:15.075Z,100479.69
2022-10-15T04:38:17.004Z,100480.31
2022-10-15T04:42:31.697Z,100478.03
2022-10-15T04:46:33.813Z,100472.22
2022-10-15T04:50:44.033Z,100478.41
2022-10-15T04:54:52.760Z,100478.50
2022-10-15T04:58:54.717Z,100477.16
2022-10-15T05:02:58.375Z,100479.00
2022-10-15T05:07:17.056Z,100482.63
2022-10-15T05:11:23.156Z,100487.09
2022-10-15T05:15:27.184Z,100482.47
2022-10-15T05:19:29.051Z,100483.81
2022-10-15T05:23:31.342Z,100479.84
2022-10-15T05:27:45.552Z,100476.88
2022-10-15T05:31:51.758Z,100470.22
2022-10-15T05:35:58.150Z,100480.47
2022-10-15T05:40:00.152Z,100471.22
2022-10-15T05:44:02.306Z,100467.75
2022-10-15T05:48:05.657Z,100471.47
2022-10-15T05:52:07.436Z,100474.69
2022-10-15T05:56:28.380Z,100489.41
2022-10-15T06:00:30.479Z,100495.19
2022-10-15T06:04:35.495Z,100494.31
2022-10-15T06:08:37.826Z,100494.59
2022-10-15T06:12:39.746Z,100496.19
2022-10-15T06:16:41.416Z,100493.84
2022-10-15T06:20:44.147Z,100492.59
2022-10-15T06:24:45.908Z,100482.47
2022-10-15T06:28:47.867Z,100495.44
2022-10-15T06:32:53.703Z,100492.31
2022-10-15T06:36:55.639Z,100490.28
2022-10-15T06:40:57.374Z,100497.13
2022-10-15T06:44:59.212Z,100495.06
2022-10-15T06:49:01.057Z,100499.09
2022-10-15T06:53:03.143Z,100495.28
2022-10-15T06:57:04.913Z,100499.84
2022-10-15T07:01:07.629Z,100497.41
2022-10-15T07:05:09.803Z,100502.25
2022-10-15T07:09:11.659Z,100488.50
2022-10-15T07:13:14.223Z,100489.53
2022-10-15T07:17:16.698Z,100487.75
2022-10-15T07:21:18.510Z,100481.41
2022-10-15T07:25:20.365Z,100483.06
2022-10-15T07:29:22.101Z,100479.88
2022-10-15T07:33:23.910Z,100474.44
2022-10-15T07:37:35.046Z,100470.13
2022-10-15T07:41:36.841Z,100470.94
2022-10-15T07:45:38.575Z,100471.25
2022-10-15T07:49:40.477Z,100456.91
2022-10-15T07:53:43.938Z,100450.75
2022-10-15T07:57:45.883Z,100440.88
2022-10-15T08:01:49.909Z,100434.06
2022-10-15T08:05:53.326Z,100419.41
2022-10-15T08:09:56.151Z,100424.59
2022-10-15T08:14:03.702Z,100435.53
2022-10-15T08:18:05.707Z,100431.69
2022-10-15T08:22:07.541Z,100443.84
2022-10-15T08:26:09.240Z,100422.88
2022-10-15T08:30:11.232Z,100419.50
2022-10-15T08:34:13.067Z,100409.09
2022-10-15T08:38:17.630Z,100413.00
2022-10-15T08:42:32.148Z,100411.28
2022-10-15T08:46:41.359Z,100392.78
2022-10-15T08:51:01.727Z,100380.59
2022-10-15T08:55:03.877Z,100375.03
2022-10-15T08:59:36.819Z,100366.03
2022-10-15T09:04:02.360Z,100368.09
2022-10-15T09:08:29.896Z,100357.22
2022-10-15T09:12:50.525Z,100373.94
2022-10-15T09:16:52.301Z,100374.53
2022-10-15T09:20:54.633Z,100386.41
2022-10-15T09:24:56.991Z,100387.63
2022-10-15T09:29:11.061Z,100392.59
2022-10-15T09:33:35.540Z,100386.69
2022-10-15T09:38:17.034Z,100383.59
2022-10-15T09:42:31.737Z,100384.28
2022-10-15T09:46:33.566Z,100397.88
2022-10-15T09:50:42.813Z,100394.16
2022-10-15T09:54:55.914Z,100385.13
2022-10-15T09:58:58.954Z,100397.59
2022-10-15T10:03:07.160Z,100400.28
2022-10-15T10:07:28.427Z,100384.63
2022-10-15T10:12:05.496Z,100385.47
2022-10-15T10:16:10.686Z,100399.13
2022-10-15T10:20:20.269Z,100385.53
2022-10-15T10:24:31.922Z,100386.59
2022-10-15T10:28:44.137Z,100381.69
2022-10-15T10:32:47.461Z,100388.75
2022-10-15T10:36:52.504Z,100389.88
2022-10-15T10:40:59.228Z,100394.69
2022-10-15T10:45:18.722Z,100414.69
2022-10-15T10:49:32.895Z,100416.56
2022-10-15T10:53:42.636Z,100438.16
2022-10-15T10:57:54.513Z,100442.25
2022-10-15T11:01:57.371Z,100441.59
2022-10-15T11:06:20.812Z,100441.06
2022-10-15T11:10:29.420Z,100438.53
2022-10-15T11:14:44.153Z,100453.25
2022-10-15T11:19:18.642Z,100439.81
2022-10-15T11:23:43.650Z,100446.38
2022-10-15T11:27:55.510Z,100447.09
2022-10-15T11:32:22.157Z,100459.56
2022-10-15T11:36:43.630Z,100442.78
2022-10-15T11:41:01.593Z,100450.75
2022-10-15T11:45:15.442Z,100445.59
2022-10-15T11:49:42.258Z,100442.63
2022-10-15T11:54:16.740Z,100453.69
2022-10-15T11:58:29.067Z,100457.47
2022-10-15T12:02:35.228Z,100459.44
2022-10-15T12:06:42.636Z,100451.16
2022-10-15T12:11:02.807Z,100457.22
2022-10-15T12:15:32.889Z,100465.31
2022-10-15T12:19:47.732Z,100453.41
2022-10-15T12:23:49.548Z,100454.06
2022-10-15T12:28:00.804Z,100456.88
2022-10-15T12:32:02.589Z,100453.09
2022-10-15T12:36:21.074Z,100440.09
2022-10-15T12:40:22.652Z,100443.44
2022-10-15T12:44:28.671Z,100445.53
2022-10-15T12:48:36.461Z,100442.03
2022-10-15T12:53:01.900Z,100440.19
2022-10-15T12:57:34.525Z,100443.84
2022-10-15T13:01:43.298Z,100456.13
2022-10-15T13:05:47.836Z,100450.53
2022-10-15T13:09:52.801Z,100442.84
2022-10-15T13:14:03.181Z,100446.09
2022-10-15T13:18:09.165Z,100438.81
2022-10-15T13:22:31.129Z,100443.56
2022-10-15T13:26:33.162Z,100447.75
2022-10-15T13:30:34.841Z,100445.81
2022-10-15T13:34:36.708Z,100452.25
2022-10-15T13:38:41.127Z,100444.31
2022-10-15T13:43:00.255Z,100447.66
2022-10-15T13:47:02.593Z,100447.53
2022-10-15T13:51:05.668Z,100442.47
2022-10-15T13:55:17.793Z,100442.22
2022-10-15T13:59:20.794Z,100443.03
2022-10-15T14:03:35.842Z,100449.00
2022-10-15T14:07:37.734Z,100439.91
2022-10-15T14:11:40.078Z,100445.34
2022-10-15T14:15:51.287Z,100448.69
2022-10-15T14:20:14.753Z,100452.06
2022-10-15T14:24:27.201Z,100447.44
2022-10-15T14:28:33.118Z,100451.06
2022-10-15T14:32:48.232Z,100446.00
2022-10-15T14:36:49.921Z,100448.53
2022-10-15T14:41:04.863Z,100453.09
2022-10-15T14:45:17.895Z,100447.03
2022-10-15T14:49:27.419Z,100445.56
2022-10-15T14:53:36.629Z,100442.00
2022-10-15T14:57:41.740Z,100436.91
2022-10-15T15:01:56.014Z,100446.31
2022-10-15T15:06:00.384Z,100449.22
2022-10-15T15:10:02.167Z,100451.63
2022-10-15T15:14:04.055Z,100446.56
2022-10-15T15:18:05.847Z,100436.59
2022-10-15T15:22:11.845Z,100418.44
2022-10-15T15:26:13.576Z,100428.84
2022-10-15T15:30:18.953Z,100428.00
2022-10-15T15:34:20.665Z,100436.94
2022-10-15T15:38:30.616Z,100440.03
2022-10-15T15:42:33.221Z,100434.84
2022-10-15T15:46:35.005Z,100428.06
2022-10-15T15:50:37.358Z,100424.13
2022-10-15T15:54:43.113Z,100423.56
2022-10-15T15:58:45.642Z,100423.81
2022-10-15T16:02:47.739Z,100402.31
2022-10-15T16:06:49.628Z,100408.34
2022-10-15T16:10:51.478Z,100383.50
2022-10-15T16:14:53.262Z,100388.41
2022-10-15T16:18:55.229Z,100385.03
2022-10-15T16:22:57.049Z,100377.59
2022-10-15T16:26:59.046Z,100378.03
2022-10-15T16:31:15.148Z,100379.97
2022-10-15T16:35:17.128Z,100384.53
2022-10-15T16:39:18.906Z,100368.19
2022-10-15T16:43:20.703Z,100379.72
2022-10-15T16:47:22.630Z,100386.34
2022-10-15T16:51:25.239Z,100386.72
2022-10-15T16:55:28.794Z,100395.75
2022-10-15T16:59:31.085Z,100397.06
2022-10-15T17:03:35.518Z,100404.53
2022-10-15T17:07:37.978Z,100414.28
2022-10-15T17:11:41.993Z,100410.91
2022-10-15T17:15:43.877Z,100405.66
2022-10-15T17:19:46.154Z,100409.03
2022-10-15T17:23:50.420Z,100416.50
2022-10-15T17:27:52.612Z,100418.19
2022-10-15T17:31:54.572Z,100422.31
2022-10-15T17:35:56.291Z,100445.72
2022-10-15T17:39:58.273Z,100448.44
2022-10-15T17:44:00.075Z,100453.25
2022-10-15T17:48:01.879Z,100465.22
2022-10-15T17:52:03.608Z,100470.84
2022-10-15T17:56:16.177Z,100475.41
2022-10-15T18:00:18.246Z,100481.63
2022-10-15T18:04:20.041Z,100484.03
2022-10-15T18:08:21.876Z,100487.00
2022-10-15T18:12:23.718Z,100482.22
2022-10-15T18:16:25.886Z,100482.44
2022-10-15T18:20:27.848Z,100488.75
2022-10-15T18:24:29.589Z,100494.75
2022-10-15T18:28:32.313Z,100506.75
2022-10-15T18:36:42.439Z,100507.19
2022-10-15T18:40:44.405Z,100496.91
2022-10-15T18:44:46.243Z,100500.03
2022-10-15T18:48:48.963Z,100491.78
2022-10-15T18:52:50.764Z,100493.91
2022-10-15T18:56:52.893Z,100482.69
2022-10-15T19:00:55.788Z,100477.97
2022-10-15T19:04:57.531Z,100466.22
2022-10-15T19:09:00.751Z,100489.09
2022-10-15T19:13:05.230Z,100487.72
2022-10-15T19:17:07.036Z,100491.25
2022-10-15T19:21:10.958Z,100493.75
2022-10-15T19:25:12.925Z,100506.78
2022-10-15T19:29:15.089Z,100497.31
2022-10-15T19:33:17.073Z,100485.75
2022-10-15T19:37:19.719Z,100493.75
2022-10-15T19:41:24.896Z,100490.25
2022-10-15T19:45:26.695Z,100488.59
2022-10-15T19:49:28.497Z,100496.44
2022-10-15T19:53:30.897Z,100498.28
2022-10-15T19:57:32.854Z,100486.28
2022-10-15T20:01:34.679Z,100488.25
2022-10-15T20:05:36.523Z,100493.69
2022-10-15T20:09:38.482Z,100495.38
2022-10-15T20:13:40.503Z,100503.66
2022-10-15T20:17:42.124Z,100510.00
2022-10-15T20:21:44.017Z,100512.44
2022-10-15T20:25:46.439Z,100515.09
2022-10-15T20:29:48.231Z,100520.22
2022-10-15T20:33:49.909Z,100526.22
2022-10-15T20:37:51.738Z,100520.84
2022-10-15T20:41:53.458Z,100521.06
2022-10-15T20:45:56.158Z,100531.72
2022-10-15T20:49:57.824Z,100536.19
2022-10-15T20:53:59.888Z,100532.59
2022-10-15T20:58:01.750Z,100540.44
2022-10-15T21:02:04.086Z,100532.50
2022-10-15T21:06:05.936Z,100544.19
2022-10-15T21:10:08.254Z,100540.44
2022-10-15T21:14:11.822Z,100540.69
2022-10-15T21:18:13.724Z,100546.28
2022-10-15T21:22:15.503Z,100553.72
2022-10-15T21:26:18.242Z,100558.72
2022-10-15T21:30:19.986Z,100561.13
2022-10-15T21:34:27.308Z,100571.69
2022-10-15T21:38:28.990Z,100570.09
2022-10-15T21:42:30.919Z,100565.25
2022-10-15T21:46:33.740Z,100571.94
2022-10-15T21:50:35.612Z,100577.50
2022-10-15T21:54:37.258Z,100575.06
2022-10-15T21:58:40.306Z,100573.28
2022-10-15T22:02:42.231Z,100573.06
2022-10-15T22:06:44.087Z,100573.19
2022-10-15T22:10:45.836Z,100578.28
2022-10-15T22:14:47.573Z,100582.69
2022-10-15T22:18:49.648Z,100580.06
2022-10-15T22:22:54.515Z,100586.13
2022-10-15T22:26:56.324Z,100585.31
2022-10-15T22:31:08.466Z,100590.53
2022-10-15T22:35:10.405Z,100595.28
2022-10-15T22:39:13.987Z,100590.63
2022-10-15T22:43:15.622Z,100601.28
2022-10-15T22:47:17.473Z,100600.22
2022-10-15T22:51:19.742Z,100605.59
2022-10-15T22:55:21.572Z,100619.22
2022-10-15T22:59:23.394Z,100616.69
2022-10-15T23:03:25.193Z,100620.53
2022-10-15T23:07:26.855Z,100621.75
2022-10-15T23:11:37.692Z,100622.50
2022-10-15T23:15:39.319Z,100610.47
2022-10-15T23:19:41.087Z,100626.22
2022-10-15T23:23:44.928Z,100641.00
2022-10-15T23:27:46.737Z,100623.47
2022-10-15T23:31:49.778Z,100624.50
2022-10-15T23:36:02.210Z,100634.03
2022-10-15T23:40:04.186Z,100639.31
2022-10-15T23:44:06.008Z,100636.06
2022-10-15T23:48:07.820Z,100638.03
2022-10-15T23:52:09.658Z,100634.13
2022-10-15T23:56:11.688Z,100631.72
